Time;durP1;ratioP1;P1;durP2;ratioP2;P2;SDS_P1;SDS_P2;PMS_P1;PMS_P2;Temp;Humidity;BMP_temperature;BMP_pressure;BME280_temperature;BME280_humidity;BME280_pressure;Samples;Min_cycle;Max_cycle;Signal;HPM_P1;HPM_P2
2021/12/09 00:01:03;;;;;;;8.10;3.90;;;5.10;99.90;;;;;;5087430;28;20629;-62
2021/12/09 00:03:32;;;;;;;11.77;4.67;;;5.10;99.90;;;;;;5079324;28;20172;-63
2021/12/09 00:06:00;;;;;;;10.17;5.00;;;5.00;99.90;;;;;;5063152;28;20267;-61
2021/12/09 00:08:28;;;;;;;5.27;4.23;;;5.00;99.90;;;;;;5089857;28;20185;-61
2021/12/09 00:10:57;;;;;;;5.83;4.87;;;5.00;99.90;;;;;;5077169;28;20186;-61
2021/12/09 00:13:23;;;;;;;10.30;4.77;;;5.00;99.90;;;;;;5094712;28;20215;-60
2021/12/09 00:15:50;;;;;;;8.37;3.80;;;5.00;99.90;;;;;;5074693;28;20213;-60
2021/12/09 00:18:17;;;;;;;9.23;3.77;;;5.00;99.90;;;;;;5078267;28;20189;-61
2021/12/09 00:20:42;;;;;;;7.67;3.70;;;5.00;99.90;;;;;;5084977;28;20186;-61
2021/12/09 00:23:08;;;;;;;7.47;3.93;;;5.10;99.90;;;;;;5042762;28;20635;-60
2021/12/09 00:25:35;;;;;;;6.63;4.53;;;5.10;99.90;;;;;;5048642;28;20612;-61
2021/12/09 00:28:01;;;;;;;5.23;3.07;;;5.10;99.90;;;;;;5058839;28;20186;-60
2021/12/09 00:30:29;;;;;;;7.73;3.20;;;5.00;99.90;;;;;;5067069;28;20191;-61
2021/12/09 00:32:55;;;;;;;3.30;3.07;;;4.90;99.90;;;;;;5080380;28;20185;-60
2021/12/09 00:35:27;;;;;;;3.27;2.97;;;4.90;99.90;;;;;;5073172;28;20628;-61
2021/12/09 00:38:06;;;;;;;6.10;3.67;;;5.00;99.90;;;;;;5089849;28;20204;-61
2021/12/09 00:40:33;;;;;;;3.77;3.30;;;4.90;99.90;;;;;;5081885;28;20230;-60
2021/12/09 00:42:59;;;;;;;3.17;2.93;;;4.90;99.90;;;;;;5074340;28;20584;-60
2021/12/09 00:45:26;;;;;;;5.80;3.87;;;4.90;99.90;;;;;;5090479;28;20192;-60
2021/12/09 00:47:52;;;;;;;5.07;3.57;;;4.90;99.90;;;;;;5077598;28;20192;-60
2021/12/09 00:50:19;;;;;;;9.97;3.70;;;5.00;99.90;;;;;;5095687;28;20181;-61
2021/12/09 00:52:45;;;;;;;10.67;4.80;;;5.10;99.90;;;;;;5077741;28;20208;-60
2021/12/09 00:55:11;;;;;;;8.90;3.20;;;5.00;99.90;;;;;;5094672;28;20223;-61
2021/12/09 00:57:39;;;;;;;6.07;3.50;;;5.00;99.90;;;;;;5072620;28;20186;-60
2021/12/09 01:00:08;;;;;;;7.27;3.70;;;4.90;99.90;;;;;;5075869;28;20181;-61
2021/12/09 01:02:34;;;;;;;4.10;3.27;;;4.80;99.90;;;;;;5086348;28;20180;-61
2021/12/09 01:05:00;;;;;;;5.33;2.83;;;4.80;99.90;;;;;;5077060;28;20664;-60
2021/12/09 01:07:25;;;;;;;10.43;3.23;;;4.80;99.90;;;;;;5078535;28;20196;-61
2021/12/09 01:09:51;;;;;;;6.87;3.23;;;5.00;99.90;;;;;;5041391;28;20296;-61
2021/12/09 01:12:17;;;;;;;9.43;2.97;;;4.90;99.90;;;;;;5057876;28;20185;-61
2021/12/09 01:14:42;;;;;;;7.20;3.40;;;4.90;99.90;;;;;;5093983;28;20193;-61
2021/12/09 01:17:10;;;;;;;3.60;3.13;;;5.00;99.90;;;;;;5094905;28;20224;-61
2021/12/09 01:19:37;;;;;;;5.53;3.83;;;5.00;99.90;;;;;;5066659;28;20185;-61
2021/12/09 01:22:04;;;;;;;6.13;3.33;;;4.90;99.90;;;;;;5095580;28;20204;-61
2021/12/09 01:24:30;;;;;;;10.17;4.07;;;4.90;99.90;;;;;;5094518;28;20184;-62
2021/12/09 01:26:57;;;;;;;5.03;3.60;;;4.90;99.90;;;;;;5076551;28;20180;-61
2021/12/09 01:29:32;;;;;;;14.20;3.87;;;4.90;99.90;;;;;;5058434;28;20200;-61
2021/12/09 01:32:01;;;;;;;7.50;3.93;;;4.80;99.90;;;;;;5078154;28;20188;-61
2021/12/09 01:34:27;;;;;;;13.30;4.07;;;4.90;99.90;;;;;;5094964;28;20184;-61
2021/12/09 01:36:53;;;;;;;6.47;3.30;;;4.70;99.90;;;;;;5076576;28;20235;-61
2021/12/09 01:39:20;;;;;;;4.33;3.60;;;4.70;99.90;;;;;;5076730;28;20276;-61
2021/12/09 01:41:47;;;;;;;6.27;3.17;;;4.80;99.90;;;;;;5085313;28;20599;-61
2021/12/09 01:44:12;;;;;;;9.73;3.30;;;4.80;99.90;;;;;;5076503;28;20208;-60
2021/12/09 01:46:38;;;;;;;7.23;3.40;;;4.80;99.90;;;;;;5076713;28;20231;-60
2021/12/09 01:49:04;;;;;;;8.83;3.77;;;4.70;99.90;;;;;;5075595;28;20189;-60
2021/12/09 01:51:30;;;;;;;8.00;3.50;;;4.80;99.90;;;;;;5082435;28;20181;-61
2021/12/09 01:53:55;;;;;;;5.03;3.40;;;4.70;99.90;;;;;;5074752;28;20186;-61
2021/12/09 01:56:24;;;;;;;5.53;3.87;;;4.60;99.90;;;;;;5092913;28;20248;-61
2021/12/09 01:58:52;;;;;;;9.27;4.10;;;4.60;99.90;;;;;;5057395;28;20197;-61
2021/12/09 02:01:18;;;;;;;8.30;3.83;;;4.70;99.90;;;;;;5075499;28;20181;-61
2021/12/09 02:03:44;;;;;;;6.10;4.50;;;4.70;99.90;;;;;;5086318;28;20191;-61
2021/12/09 02:06:10;;;;;;;7.03;4.07;;;4.80;99.90;;;;;;5093778;28;20188;-61
2021/12/09 02:08:36;;;;;;;12.00;3.77;;;4.90;99.90;;;;;;5075331;28;20196;-61
2021/12/09 02:11:02;;;;;;;4.97;3.40;;;4.80;99.90;;;;;;5059049;28;20219;-60
2021/12/09 02:13:28;;;;;;;7.57;3.53;;;4.80;99.90;;;;;;5085268;28;20196;-61
2021/12/09 02:15:55;;;;;;;4.23;3.53;;;4.70;99.90;;;;;;5074252;28;20296;-61
2021/12/09 02:18:22;;;;;;;10.23;2.90;;;4.60;99.90;;;;;;5089364;28;20195;-60
2021/12/09 02:21:03;;;;;;;5.37;2.97;;;4.70;99.90;;;;;;5074755;28;20545;-61
2021/12/09 02:23:28;;;;;;;3.23;2.73;;;4.60;99.90;;;;;;5083667;28;20187;-61
2021/12/09 02:25:54;;;;;;;4.40;3.07;;;4.70;99.90;;;;;;5093866;28;20197;-61
2021/12/09 02:28:20;;;;;;;6.10;3.97;;;4.80;99.90;;;;;;5075442;28;20648;-61
2021/12/09 02:30:45;;;;;;;5.50;2.73;;;4.70;99.90;;;;;;5066223;28;20676;-61
2021/12/09 02:33:11;;;;;;;5.53;3.17;;;4.80;99.90;;;;;;5056480;28;20193;-61
2021/12/09 02:35:38;;;;;;;9.57;3.83;;;4.80;99.90;;;;;;5092484;28;20299;-61
2021/12/09 02:38:07;;;;;;;5.13;3.50;;;4.70;99.90;;;;;;5048202;28;20246;-61
2021/12/09 02:40:33;;;;;;;6.70;3.00;;;4.70;99.90;;;;;;5066902;28;20207;-61
2021/12/09 02:43:00;;;;;;;8.30;3.60;;;4.50;99.90;;;;;;5079761;28;20509;-62
2021/12/09 02:45:25;;;;;;;4.90;2.60;;;4.60;99.90;;;;;;5075888;28;20181;-61
2021/12/09 02:47:51;;;;;;;3.30;2.20;;;4.50;99.90;;;;;;5074982;28;20713;-62
2021/12/09 02:50:17;;;;;;;6.53;3.10;;;4.60;99.90;;;;;;5082706;28;20554;-62
2021/12/09 02:52:42;;;;;;;7.17;2.80;;;4.40;99.90;;;;;;5065565;28;20181;-62
2021/12/09 02:55:08;;;;;;;5.13;2.93;;;4.40;99.90;;;;;;5093149;28;20216;-61
2021/12/09 02:57:34;;;;;;;7.70;3.60;;;4.50;99.90;;;;;;5058021;28;20673;-62
2021/12/09 03:00:00;;;;;;;10.20;3.37;;;4.60;99.90;;;;;;5093374;28;20192;-61
2021/12/09 03:02:26;;;;;;;15.63;3.67;;;4.70;99.90;;;;;;5075286;28;20195;-61
2021/12/09 03:04:58;;;;;;;5.20;3.70;;;4.60;99.90;;;;;;5079904;28;20193;-61
2021/12/09 03:07:34;;;;;;;5.97;3.30;;;4.50;99.90;;;;;;5074819;28;20253;-61
2021/12/09 03:10:19;;;;;;;3.03;2.60;;;4.50;99.90;;;;;;5093294;28;20229;-61
2021/12/09 03:12:48;;;;;;;6.67;2.70;;;4.40;99.90;;;;;;5074174;28;20169;-61
2021/12/09 03:15:15;;;;;;;4.40;3.27;;;4.20;99.90;;;;;;5065185;28;20199;-62
2021/12/09 03:17:42;;;;;;;4.13;2.93;;;4.30;99.90;;;;;;5093112;28;20191;-62
2021/12/09 03:20:10;;;;;;;6.63;2.70;;;4.30;99.90;;;;;;5066067;28;20186;-61
2021/12/09 03:22:36;;;;;;;4.77;3.40;;;4.40;99.90;;;;;;5062563;28;20176;-62
2021/12/09 03:25:05;;;;;;;7.47;3.23;;;4.30;99.90;;;;;;5093277;28;20188;-61
2021/12/09 03:27:31;;;;;;;4.77;3.00;;;4.30;99.90;;;;;;5073812;28;20193;-62
2021/12/09 03:29:56;;;;;;;2.90;2.70;;;4.40;99.90;;;;;;5060800;28;20733;-61
2021/12/09 03:32:23;;;;;;;8.87;3.30;;;4.30;99.90;;;;;;5074629;28;20249;-61
2021/12/09 03:34:49;;;;;;;6.47;4.40;;;4.30;99.90;;;;;;5049382;28;20183;-61
2021/12/09 03:37:19;;;;;;;8.57;3.50;;;4.20;99.90;;;;;;5089944;28;20636;-61
2021/12/09 03:39:45;;;;;;;9.17;3.77;;;4.30;99.90;;;;;;5074603;28;20180;-61
2021/12/09 03:42:14;;;;;;;3.43;3.07;;;4.20;99.90;;;;;;5064641;28;20211;-61
2021/12/09 03:44:40;;;;;;;8.07;3.43;;;4.10;99.90;;;;;;5091834;28;20529;-61
2021/12/09 03:47:08;;;;;;;9.90;3.90;;;4.20;99.90;;;;;;5074648;28;20229;-61
2021/12/09 03:49:33;;;;;;;8.20;4.03;;;4.20;99.90;;;;;;5074112;28;20190;-61
2021/12/09 03:51:59;;;;;;;10.67;5.47;;;4.30;99.90;;;;;;5074058;28;20207;-61
2021/12/09 03:54:26;;;;;;;6.47;3.53;;;4.20;99.90;;;;;;5074551;28;20222;-61
2021/12/09 03:56:52;;;;;;;11.60;4.17;;;4.10;99.90;;;;;;5074500;28;20269;-61
2021/12/09 03:59:18;;;;;;;3.50;3.20;;;4.10;99.90;;;;;;5074787;28;20689;-62
2021/12/09 04:01:45;;;;;;;7.37;3.70;;;4.10;99.90;;;;;;5074426;28;20191;-61
2021/12/09 04:04:12;;;;;;;4.77;3.33;;;4.20;99.90;;;;;;5085832;28;20220;-61
2021/12/09 04:06:38;;;;;;;12.33;3.60;;;4.30;99.90;;;;;;5079133;28;20271;-61
2021/12/09 04:09:08;;;;;;;10.57;3.97;;;4.20;99.90;;;;;;5074358;28;20544;-62
2021/12/09 04:11:34;;;;;;;6.40;3.60;;;4.10;99.90;;;;;;5092473;28;20263;-61
2021/12/09 04:14:00;;;;;;;9.00;3.87;;;4.20;99.90;;;;;;5092464;28;20606;-62
2021/12/09 04:16:26;;;;;;;4.03;3.73;;;4.20;99.90;;;;;;5063288;28;20295;-61
2021/12/09 04:18:52;;;;;;;7.30;4.33;;;4.20;99.90;;;;;;5080178;28;20280;-61
2021/12/09 04:21:17;;;;;;;9.13;3.47;;;4.10;99.90;;;;;;5082541;28;20212;-61
2021/12/09 04:23:43;;;;;;;7.63;3.80;;;4.10;99.90;;;;;;5065607;28;20185;-62
2021/12/09 04:26:09;;;;;;;6.63;4.10;;;4.10;99.90;;;;;;5073219;28;20185;-62
2021/12/09 04:28:36;;;;;;;11.03;4.43;;;4.10;99.90;;;;;;5067887;28;20185;-62
2021/12/09 04:31:03;;;;;;;6.03;3.77;;;4.10;99.90;;;;;;5064631;28;20272;-61
2021/12/09 04:33:29;;;;;;;6.73;4.27;;;4.00;99.90;;;;;;5086136;28;20661;-62
2021/12/09 04:35:56;;;;;;;12.40;4.50;;;3.90;99.90;;;;;;5085909;28;20715;-61
2021/12/09 04:38:22;;;;;;;6.47;4.00;;;4.00;99.90;;;;;;5077938;28;20230;-61
2021/12/09 04:40:48;;;;;;;5.60;3.90;;;4.10;99.90;;;;;;5061785;28;20181;-61
2021/12/09 04:43:14;;;;;;;10.23;4.57;;;4.20;99.90;;;;;;5059786;28;20531;-61
2021/12/09 04:45:40;;;;;;;7.90;4.73;;;4.20;99.90;;;;;;5092627;28;20211;-61
2021/12/09 04:48:07;;;;;;;5.80;4.50;;;4.20;99.90;;;;;;5095445;28;20804;-61
2021/12/09 04:50:34;;;;;;;10.77;5.10;;;4.10;99.90;;;;;;5078154;28;20287;-61
2021/12/09 04:53:00;;;;;;;4.93;3.80;;;4.10;99.90;;;;;;5077849;28;20192;-61
2021/12/09 04:55:25;;;;;;;12.27;5.37;;;4.10;99.90;;;;;;5077820;28;20217;-62
2021/12/09 04:57:51;;;;;;;8.40;4.93;;;4.10;99.90;;;;;;5095059;28;20308;-62
2021/12/09 05:00:21;;;;;;;14.20;4.53;;;4.30;99.90;;;;;;5076371;28;20188;-61
2021/12/09 05:05:21;;;;;;;10.57;4.73;;;4.40;99.90;;;;;;5084488;28;20197;-60
2021/12/09 05:07:48;;;;;;;8.23;4.77;;;4.30;99.90;;;;;;5042251;28;20198;-61
2021/12/09 05:10:13;;;;;;;11.10;4.30;;;4.30;99.90;;;;;;5069514;28;20220;-62
2021/12/09 05:12:39;;;;;;;6.40;4.57;;;4.30;99.90;;;;;;5076422;28;20258;-62
2021/12/09 05:15:05;;;;;;;6.73;4.03;;;4.20;99.90;;;;;;5095227;28;20220;-62
2021/12/09 05:17:31;;;;;;;7.37;4.53;;;4.40;99.90;;;;;;5086976;28;20197;-62
2021/12/09 05:19:57;;;;;;;7.73;4.63;;;4.50;99.90;;;;;;5066078;28;20203;-62
2021/12/09 05:22:22;;;;;;;10.13;5.07;;;4.40;99.90;;;;;;5084712;28;20192;-61
2021/12/09 05:24:50;;;;;;;7.77;4.63;;;4.60;99.90;;;;;;5071547;28;20185;-61
2021/12/09 05:27:17;;;;;;;13.00;3.80;;;4.50;99.90;;;;;;5059237;28;20180;-62
2021/12/09 05:29:44;;;;;;;8.97;4.83;;;4.60;99.90;;;;;;5095068;28;20234;-61
2021/12/09 05:32:13;;;;;;;7.87;4.07;;;4.60;99.90;;;;;;5076897;28;20189;-61
2021/12/09 05:34:45;;;;;;;11.80;4.20;;;4.60;99.90;;;;;;5076693;28;20280;-61
2021/12/09 05:37:14;;;;;;;4.30;3.37;;;4.50;99.90;;;;;;5094996;28;20262;-61
2021/12/09 05:39:39;;;;;;;5.80;3.97;;;4.40;99.90;;;;;;5093934;28;20642;-61
2021/12/09 05:42:07;;;;;;;8.83;3.83;;;4.40;99.90;;;;;;5073099;28;20193;-60
2021/12/09 05:44:34;;;;;;;6.90;4.23;;;4.50;99.90;;;;;;5069050;28;20188;-62
2021/12/09 05:47:02;;;;;;;5.93;4.10;;;4.40;99.90;;;;;;5075318;28;20681;-62
2021/12/09 05:49:28;;;;;;;4.57;3.50;;;4.40;99.90;;;;;;5093638;28;20185;-61
2021/12/09 05:51:54;;;;;;;9.73;4.37;;;4.40;99.90;;;;;;5091400;28;20190;-61
2021/12/09 05:54:20;;;;;;;6.67;3.57;;;4.40;99.90;;;;;;5075414;28;20177;-61
2021/12/09 05:56:46;;;;;;;6.03;4.43;;;4.40;99.90;;;;;;5075174;28;20232;-61
2021/12/09 05:59:12;;;;;;;9.73;4.23;;;4.30;99.90;;;;;;5074974;28;20270;-61
2021/12/09 06:01:39;;;;;;;13.30;4.23;;;4.40;99.90;;;;;;5091542;28;20220;-61
2021/12/09 06:04:05;;;;;;;8.30;4.13;;;4.40;99.90;;;;;;5089607;28;20189;-61
2021/12/09 06:06:33;;;;;;;17.83;4.30;;;4.30;99.90;;;;;;5059218;28;20197;-61
2021/12/09 06:08:59;;;;;;;5.47;3.63;;;4.40;99.90;;;;;;5075264;28;20212;-61
2021/12/09 06:11:26;;;;;;;8.60;5.07;;;4.40;99.90;;;;;;5094378;28;20637;-62
2021/12/09 06:13:52;;;;;;;7.10;3.30;;;4.40;99.90;;;;;;5076418;28;20229;-62
2021/12/09 06:16:19;;;;;;;6.90;4.60;;;4.60;99.90;;;;;;5093687;28;20219;-61
2021/12/09 06:18:45;;;;;;;8.37;4.07;;;4.70;99.90;;;;;;5093669;28;20271;-61
2021/12/09 06:21:11;;;;;;;6.23;4.33;;;4.60;99.90;;;;;;5084499;28;20721;-62
2021/12/09 06:23:37;;;;;;;6.83;4.20;;;4.70;99.90;;;;;;5076541;28;20284;-61
2021/12/09 06:26:05;;;;;;;13.63;5.30;;;4.70;99.90;;;;;;5075279;28;20192;-62
2021/12/09 06:28:31;;;;;;;9.57;5.30;;;4.70;99.90;;;;;;5093738;28;20215;-62
2021/12/09 06:30:57;;;;;;;11.40;5.47;;;4.60;99.90;;;;;;5094129;28;20188;-61
2021/12/09 06:33:22;;;;;;;8.50;3.87;;;4.80;99.90;;;;;;5080254;28;20224;-61
2021/12/09 06:35:48;;;;;;;11.83;3.30;;;4.80;99.90;;;;;;5048992;28;20229;-61
2021/12/09 06:38:16;;;;;;;5.87;3.10;;;4.80;99.90;;;;;;5056436;28;20558;-61
2021/12/09 06:40:43;;;;;;;6.73;3.30;;;4.90;99.90;;;;;;5088745;28;20192;-62
2021/12/09 06:43:10;;;;;;;9.30;3.10;;;4.80;99.90;;;;;;5093384;28;20191;-61
2021/12/09 06:45:36;;;;;;;7.20;3.37;;;4.70;99.90;;;;;;5093419;28;20253;-61
2021/12/09 06:48:02;;;;;;;5.67;2.73;;;4.70;99.90;;;;;;5093506;28;20212;-61
2021/12/09 06:50:27;;;;;;;7.47;3.50;;;4.90;99.90;;;;;;5049164;28;20661;-62
2021/12/09 06:52:53;;;;;;;6.87;3.83;;;4.90;99.90;;;;;;5080101;28;20204;-62
2021/12/09 06:55:21;;;;;;;7.17;3.07;;;4.80;99.90;;;;;;5072977;28;20269;-61
2021/12/09 06:57:47;;;;;;;5.53;2.90;;;4.80;99.90;;;;;;5073669;28;20201;-62
2021/12/09 07:00:26;;;;;;;9.57;4.00;;;4.80;99.90;;;;;;5092883;28;20189;-61
2021/12/09 07:02:53;;;;;;;7.50;3.30;;;4.70;99.90;;;;;;5083859;28;20181;-61
2021/12/09 07:05:21;;;;;;;7.90;3.30;;;4.80;99.90;;;;;;5064528;28;20188;-61
2021/12/09 07:07:48;;;;;;;4.83;3.47;;;4.80;99.90;;;;;;5075403;28;20272;-61
2021/12/09 07:10:14;;;;;;;4.00;3.43;;;4.70;99.90;;;;;;5090452;28;20207;-61
2021/12/09 07:12:41;;;;;;;8.73;4.53;;;4.70;99.90;;;;;;5081404;28;20185;-61
2021/12/09 07:15:09;;;;;;;7.90;4.47;;;4.80;99.90;;;;;;5069522;28;20719;-61
2021/12/09 07:17:35;;;;;;;7.40;3.47;;;4.80;99.90;;;;;;5082569;28;20196;-61
2021/12/09 07:20:03;;;;;;;6.63;4.33;;;4.80;99.90;;;;;;5081685;28;20189;-60
2021/12/09 07:22:29;;;;;;;4.03;3.60;;;4.80;99.90;;;;;;5056774;28;20262;-61
2021/12/09 07:24:55;;;;;;;9.33;4.87;;;4.80;99.90;;;;;;5039865;28;20623;-61
2021/12/09 07:27:20;;;;;;;5.40;4.07;;;4.70;99.90;;;;;;5093432;28;20535;-61
2021/12/09 07:29:46;;;;;;;10.97;5.40;;;4.80;99.90;;;;;;5074133;28;20184;-61
2021/12/09 07:32:12;;;;;;;10.63;5.60;;;4.90;99.90;;;;;;5093661;28;20173;-61
2021/12/09 07:34:37;;;;;;;11.63;5.77;;;4.90;99.90;;;;;;5048044;28;20272;-61
2021/12/09 07:37:05;;;;;;;7.77;5.63;;;4.90;99.90;;;;;;5057278;28;20228;-62
2021/12/09 07:39:32;;;;;;;6.33;4.60;;;4.90;99.90;;;;;;5074679;28;20173;-62
2021/12/09 07:41:59;;;;;;;9.87;5.00;;;4.90;99.90;;;;;;5062714;28;20280;-61
2021/12/09 07:44:27;;;;;;;11.23;5.10;;;4.90;99.90;;;;;;5074713;28;20313;-61
2021/12/09 07:46:54;;;;;;;13.90;5.43;;;5.00;99.90;;;;;;5076771;28;20284;-61
2021/12/09 07:49:24;;;;;;;9.10;5.97;;;4.90;99.90;;;;;;5072745;28;20547;-61
2021/12/09 07:51:50;;;;;;;11.67;5.60;;;5.00;99.90;;;;;;5092140;28;20188;-61
2021/12/09 07:54:16;;;;;;;6.23;4.90;;;5.00;99.90;;;;;;5092752;28;20177;-61
2021/12/09 07:56:42;;;;;;;7.13;5.40;;;5.00;99.90;;;;;;5062161;28;20219;-61
2021/12/09 07:59:11;;;;;;;6.57;5.17;;;5.00;99.90;;;;;;5074838;28;20285;-61
2021/12/09 08:01:40;;;;;;;11.87;5.67;;;5.20;99.90;;;;;;5074985;28;20258;-61
2021/12/09 08:04:07;;;;;;;7.20;5.37;;;5.20;99.90;;;;;;5082353;28;20177;-61
2021/12/09 08:06:36;;;;;;;8.77;5.50;;;5.10;99.90;;;;;;5068349;28;20188;-61
2021/12/09 08:09:03;;;;;;;6.50;5.73;;;5.10;99.90;;;;;;5063949;28;20571;-62
2021/12/09 08:11:36;;;;;;;8.13;4.90;;;5.30;99.90;;;;;;5069008;28;20290;-62
2021/12/09 08:14:05;;;;;;;10.67;6.67;;;5.30;99.90;;;;;;5096701;28;20187;-62
2021/12/09 08:16:37;;;;;;;9.03;6.20;;;5.40;99.90;;;;;;5070018;28;20221;-61
2021/12/09 08:19:04;;;;;;;9.10;5.50;;;5.50;99.90;;;;;;5068924;28;20184;-61
2021/12/09 08:21:33;;;;;;;8.47;5.70;;;5.40;99.90;;;;;;5078260;28;20646;-61
2021/12/09 08:23:59;;;;;;;11.20;6.93;;;5.50;99.90;;;;;;5095798;28;20668;-61
2021/12/09 08:26:25;;;;;;;7.80;5.40;;;5.50;99.90;;;;;;5095834;28;20224;-61
2021/12/09 08:28:50;;;;;;;15.57;5.80;;;5.30;99.90;;;;;;5078047;28;20634;-63
2021/12/09 08:31:16;;;;;;;12.07;6.30;;;5.20;99.90;;;;;;5077822;28;20638;-61
2021/12/09 08:33:42;;;;;;;7.30;5.40;;;5.20;99.90;;;;;;5095947;28;20192;-61
2021/12/09 08:36:07;;;;;;;8.23;5.77;;;5.30;99.90;;;;;;5061173;28;20220;-61
2021/12/09 08:38:35;;;;;;;13.33;6.23;;;5.20;99.90;;;;;;5077892;28;20250;-62
2021/12/09 08:41:02;;;;;;;7.57;5.73;;;5.30;99.90;;;;;;5077710;28;20185;-61
2021/12/09 08:43:28;;;;;;;12.17;5.90;;;5.30;99.90;;;;;;5059624;28;20673;-61
2021/12/09 08:45:54;;;;;;;8.03;5.67;;;5.20;99.90;;;;;;5077747;28;20280;-61
2021/12/09 08:48:21;;;;;;;8.50;5.03;;;5.30;99.90;;;;;;5095920;28;20599;-61
2021/12/09 08:50:47;;;;;;;17.00;6.67;;;5.20;99.90;;;;;;5077848;28;20196;-61
2021/12/09 08:53:17;;;;;;;8.43;5.33;;;5.20;99.90;;;;;;5094560;28;20394;-61
2021/12/09 08:55:43;;;;;;;11.17;6.50;;;5.20;99.90;;;;;;5082808;28;20239;-61
2021/12/09 08:58:10;;;;;;;12.37;5.67;;;5.30;99.90;;;;;;5091175;28;20198;-61
2021/12/09 09:00:37;;;;;;;11.10;6.20;;;5.30;99.90;;;;;;5068943;28;20637;-61
2021/12/09 09:03:03;;;;;;;10.07;6.27;;;5.30;99.90;;;;;;5073820;28;20181;-61
2021/12/09 09:05:30;;;;;;;8.67;6.57;;;5.30;99.90;;;;;;5083064;28;20199;-61
2021/12/09 09:07:56;;;;;;;12.67;7.07;;;5.20;99.90;;;;;;5057275;28;20593;-61
2021/12/09 09:10:24;;;;;;;11.97;6.00;;;5.10;99.90;;;;;;5050973;28;20550;-61
2021/12/09 09:12:51;;;;;;;7.80;6.10;;;5.10;99.90;;;;;;5080809;28;20180;-59
2021/12/09 09:15:19;;;;;;;7.57;6.63;;;5.20;99.90;;;;;;5060659;28;20212;-60
2021/12/09 09:17:45;;;;;;;11.40;7.20;;;5.20;99.90;;;;;;5073409;28;20180;-60
2021/12/09 09:20:14;;;;;;;7.57;6.07;;;5.20;99.90;;;;;;5058219;28;20181;-60
2021/12/09 09:22:40;;;;;;;10.13;6.13;;;5.20;99.90;;;;;;5073164;28;20208;-60
2021/12/09 09:25:09;;;;;;;9.73;7.03;;;5.20;99.90;;;;;;5100705;28;20533;-60
2021/12/09 09:27:35;;;;;;;10.47;7.20;;;5.10;99.90;;;;;;5091791;28;20188;-60
2021/12/09 09:30:02;;;;;;;10.93;6.57;;;5.10;99.90;;;;;;5085766;28;20653;-60
2021/12/09 09:32:28;;;;;;;7.90;6.97;;;5.10;99.90;;;;;;5091060;28;20177;-60
2021/12/09 09:34:54;;;;;;;11.10;7.10;;;5.10;99.90;;;;;;5062161;28;20193;-60
2021/12/09 09:37:21;;;;;;;10.50;5.97;;;5.10;99.90;;;;;;5067853;28;20216;-60
2021/12/09 09:39:47;;;;;;;12.13;7.43;;;5.30;99.90;;;;;;5080611;28;20665;-60
2021/12/09 09:44:48;;;;;;;8.40;6.50;;;5.20;99.90;;;;;;5086050;28;20215;-60
2021/12/09 09:47:16;;;;;;;9.97;6.47;;;5.20;99.90;;;;;;5083145;28;20190;-60
2021/12/09 09:49:42;;;;;;;11.73;7.50;;;5.20;99.90;;;;;;5090868;28;20233;-60
2021/12/09 09:52:11;;;;;;;14.00;7.10;;;5.20;99.90;;;;;;5093222;28;20523;-60
2021/12/09 09:54:38;;;;;;;7.37;5.83;;;5.20;99.90;;;;;;5074871;28;20278;-60
2021/12/09 09:57:06;;;;;;;9.63;6.97;;;5.10;99.90;;;;;;5103582;28;20211;-60
2021/12/09 09:59:31;;;;;;;12.83;6.63;;;5.20;99.90;;;;;;5088290;28;20200;-60
2021/12/09 10:01:57;;;;;;;12.63;6.43;;;5.20;99.90;;;;;;5059551;28;20196;-60
2021/12/09 10:07:06;;;;;;;11.30;6.40;;;5.40;99.90;;;;;;5083170;28;20911;-60
2021/12/09 10:09:32;;;;;;;10.13;6.27;;;5.50;99.90;;;;;;5089761;28;20287;-60
2021/12/09 10:11:59;;;;;;;8.90;6.83;;;5.70;99.90;;;;;;5072033;28;20555;-60
2021/12/09 10:14:27;;;;;;;12.40;7.00;;;5.90;99.90;;;;;;5057996;28;20779;-61
2021/12/09 10:17:10;;;;;;;9.33;7.27;;;5.80;99.90;;;;;;5084450;28;20215;-61
2021/12/09 10:19:40;;;;;;;11.03;6.30;;;5.70;99.90;;;;;;5088001;28;20183;-60
2021/12/09 10:22:11;;;;;;;7.73;5.90;;;5.80;99.90;;;;;;5094190;28;20190;-60
2021/12/09 10:24:38;;;;;;;11.63;7.13;;;5.80;99.90;;;;;;5090928;28;20191;-60
2021/12/09 10:27:07;;;;;;;12.03;6.93;;;5.80;99.90;;;;;;5085820;28;20184;-60
2021/12/09 10:29:38;;;;;;;13.83;7.33;;;5.80;99.90;;;;;;5081353;28;20184;-61
2021/12/09 10:32:10;;;;;;;11.17;7.20;;;5.80;99.90;;;;;;5075776;28;20258;-62
2021/12/09 10:34:41;;;;;;;18.10;7.90;;;5.90;99.90;;;;;;5076139;28;20588;-62
2021/12/09 10:37:23;;;;;;;13.67;7.00;;;6.00;99.90;;;;;;5096765;28;20581;-62
2021/12/09 10:39:55;;;;;;;15.47;7.63;;;6.10;99.90;;;;;;5092035;28;20181;-61
2021/12/09 10:42:25;;;;;;;12.60;7.37;;;6.20;99.90;;;;;;5074805;28;20181;-61
2021/12/09 10:45:00;;;;;;;12.67;7.10;;;6.20;99.90;;;;;;5086284;28;20248;-60
2021/12/09 10:50:30;;;;;;;9.80;6.80;;;6.40;99.90;;;;;;5102941;28;20189;-60
2021/12/09 10:55:46;;;;;;;8.30;6.57;;;6.30;99.90;;;;;;5099563;28;20212;-63
2021/12/09 10:58:14;;;;;;;8.40;5.33;;;6.20;99.90;;;;;;5086445;28;20204;-61
2021/12/09 11:00:45;;;;;;;10.47;6.67;;;6.40;99.90;;;;;;5051860;28;20206;-62
2021/12/09 11:03:13;;;;;;;11.63;6.77;;;6.50;99.90;;;;;;5041672;28;20199;-62
2021/12/09 11:05:50;;;;;;;8.50;5.80;;;6.60;99.90;;;;;;5047954;28;20193;-62
2021/12/09 11:08:21;;;;;;;9.83;6.60;;;6.60;99.90;;;;;;5050506;28;20274;-62
2021/12/09 11:10:49;;;;;;;13.53;7.10;;;6.60;99.90;;;;;;5034867;28;20345;-62
2021/12/09 11:13:18;;;;;;;12.37;7.30;;;6.60;99.90;;;;;;5046492;28;20274;-62
2021/12/09 11:15:57;;;;;;;11.77;7.27;;;6.60;99.90;;;;;;5056281;28;20217;-65
2021/12/09 11:18:28;;;;;;;12.97;7.17;;;6.50;99.90;;;;;;5049545;28;20185;-65
2021/12/09 11:20:54;;;;;;;7.47;5.87;;;6.60;99.90;;;;;;5050645;28;20279;-64
2021/12/09 11:23:30;;;;;;;10.60;5.83;;;6.60;99.90;;;;;;5016611;28;20242;-62
2021/12/09 11:25:59;;;;;;;8.20;6.40;;;6.70;99.90;;;;;;5033547;28;20201;-63
2021/12/09 11:28:26;;;;;;;10.53;7.47;;;6.70;99.90;;;;;;5038557;28;20744;-63
2021/12/09 11:31:16;;;;;;;9.20;6.97;;;6.70;99.90;;;;;;5056175;28;20207;-63
2021/12/09 11:33:45;;;;;;;11.13;7.37;;;6.60;99.90;;;;;;5067760;28;20189;-63
2021/12/09 11:36:17;;;;;;;10.30;6.93;;;6.50;99.90;;;;;;5084235;28;20662;-63
2021/12/09 11:39:08;;;;;;;10.10;7.30;;;6.50;99.90;;;;;;5085998;28;20646;-62
2021/12/09 11:41:38;;;;;;;9.17;5.97;;;6.40;99.90;;;;;;5091876;28;20177;-62
2021/12/09 11:44:08;;;;;;;16.17;7.50;;;6.50;99.90;;;;;;5063464;28;20197;-62
2021/12/09 11:46:34;;;;;;;10.47;6.30;;;6.60;99.90;;;;;;5073624;28;20189;-63
2021/12/09 11:49:00;;;;;;;10.90;7.83;;;6.60;99.90;;;;;;5093111;28;20272;-62
2021/12/09 11:51:26;;;;;;;11.37;6.90;;;6.80;99.90;;;;;;5054486;28;20185;-62
2021/12/09 11:53:56;;;;;;;14.33;6.50;;;6.80;99.90;;;;;;5061341;28;20272;-63
2021/12/09 11:56:35;;;;;;;8.67;6.57;;;6.80;99.90;;;;;;5064324;28;20300;-62
2021/12/09 12:11:11;;;;;;;12.37;6.87;;;6.90;99.90;;;;;;5086696;28;20281;-74
2021/12/09 12:11:27;;;;;;;9.63;7.33;;;7.00;99.90;;;;;;5083679;28;20196;-73
2021/12/09 12:14:04;;;;;;;13.33;7.90;;;7.00;99.90;;;;;;5071119;28;20280;-72
2021/12/09 12:19:36;;;;;;;13.20;8.43;;;7.40;99.90;;;;;;5084082;28;20192;-72
2021/12/09 12:26:09;;;;;;;8.07;6.17;;;7.20;99.90;;;;;;5090226;28;20313;-73
2021/12/09 12:37:19;;;;;;;13.83;7.33;;;7.20;99.90;;;;;;5082361;28;20670;-69
2021/12/09 12:42:17;;;;;;;15.00;7.73;;;7.20;99.90;;;;;;5089198;28;20200;-69
2021/12/09 12:50:33;;;;;;;9.77;6.50;;;7.40;99.90;;;;;;5091683;28;20195;-72
2021/12/09 12:53:34;;;;;;;12.33;6.37;;;7.30;99.90;;;;;;5075487;28;20189;-71
2021/12/09 12:56:15;;;;;;;13.00;6.97;;;7.40;99.90;;;;;;5079751;28;20271;-70
2021/12/09 12:59:11;;;;;;;12.83;7.27;;;7.60;99.90;;;;;;5083855;28;20189;-71
2021/12/09 13:01:47;;;;;;;12.87;7.00;;;7.70;99.90;;;;;;5062834;28;20261;-72
2021/12/09 13:10:26;;;;;;;10.73;6.40;;;7.50;99.90;;;;;;5096843;28;20219;-74
2021/12/09 13:13:06;;;;;;;18.67;7.00;;;7.50;99.90;;;;;;5085933;28;20207;-74
2021/12/09 13:15:43;;;;;;;14.30;7.17;;;7.40;99.90;;;;;;5076930;28;20208;-71
2021/12/09 13:21:45;;;;;;;12.87;6.17;;;7.40;99.90;;;;;;5085611;28;20189;-69
2021/12/09 13:24:20;;;;;;;11.90;6.10;;;7.50;99.90;;;;;;5094696;28;20719;-71
2021/12/09 13:27:52;;;;;;;13.20;7.03;;;7.60;99.90;;;;;;5094273;28;20649;-71
2021/12/09 13:35:53;;;;;;;13.63;6.23;;;7.30;99.90;;;;;;5079377;28;20238;-71
2021/12/09 13:46:39;;;;;;;11.73;7.73;;;7.60;99.90;;;;;;5094488;28;20559;-71
2021/12/09 13:49:54;;;;;;;11.20;6.53;;;7.70;99.90;;;;;;5075014;28;20157;-70
2021/12/09 13:55:10;;;;;;;9.73;6.67;;;7.70;99.90;;;;;;5086616;28;20230;-70
2021/12/09 13:57:50;;;;;;;8.77;5.90;;;7.80;99.90;;;;;;5062571;28;20197;-71
2021/12/09 14:00:25;;;;;;;15.20;7.77;;;7.80;99.90;;;;;;5094781;28;20187;-71
2021/12/09 14:02:56;;;;;;;12.80;6.53;;;7.70;99.90;;;;;;5094211;28;20207;-71
2021/12/09 14:05:23;;;;;;;16.90;6.80;;;7.60;99.90;;;;;;5093271;28;20199;-71
2021/12/09 14:07:59;;;;;;;14.97;6.63;;;7.60;99.90;;;;;;5094063;28;20271;-70
2021/12/09 14:10:29;;;;;;;12.77;6.03;;;7.70;99.90;;;;;;5071513;28;20200;-70
2021/12/09 14:13:03;;;;;;;11.10;6.23;;;7.70;99.90;;;;;;5068543;28;20188;-70